Time;durP1;ratioP1;P1;durP2;ratioP2;P2;SDS_P1;SDS_P2;PMS_P1;PMS_P2;Temp;Humidity;BMP_temperature;BMP_pressure;BME280_temperature;BME280_humidity;BME280_pressure;Samples;Min_cycle;Max_cycle;Signal;HPM_P1;HPM_P2
2024/01/06 00:00:29;;;;;;;173.97;52.10;;;-0.30;99.90;;;;;;4395296;28;661649;-74
2024/01/06 00:03:16;;;;;;;191.83;57.00;;;-0.30;99.90;;;;;;4424450;28;662389;-74
2024/01/06 00:06:04;;;;;;;166.80;52.07;;;-0.20;99.90;;;;;;4406288;28;662140;-74
2024/01/06 00:08:53;;;;;;;172.17;54.70;;;-0.20;99.90;;;;;;4426516;28;662045;-74
2024/01/06 00:11:41;;;;;;;177.17;57.47;;;-0.20;99.90;;;;;;4406404;28;663462;-74
2024/01/06 00:14:28;;;;;;;192.53;60.40;;;-0.20;99.90;;;;;;4406727;28;662174;-74
2024/01/06 00:17:17;;;;;;;178.50;58.20;;;-0.30;99.90;;;;;;4418885;28;663089;-74
2024/01/06 00:20:05;;;;;;;197.83;60.03;;;-0.20;99.90;;;;;;4410507;28;663144;-73
2024/01/06 00:22:52;;;;;;;174.63;59.73;;;-0.10;99.90;;;;;;4423228;28;661624;-74
2024/01/06 00:25:39;;;;;;;188.07;57.87;;;-0.10;99.90;;;;;;4396964;28;661674;-74
2024/01/06 00:28:26;;;;;;;196.83;62.23;;;-0.10;99.90;;;;;;4428178;28;662234;-74
2024/01/06 00:31:13;;;;;;;185.77;61.87;;;-0.10;99.90;;;;;;4396926;28;662440;-74
2024/01/06 00:34:03;;;;;;;280.57;63.13;;;-0.10;99.90;;;;;;4436187;28;662454;-74
2024/01/06 00:36:50;;;;;;;211.80;65.87;;;0.00;99.90;;;;;;4404333;28;661782;-74
2024/01/06 00:39:37;;;;;;;211.73;65.27;;;0.00;99.90;;;;;;4415651;28;661237;-74
2024/01/06 00:42:25;;;;;;;185.07;60.10;;;0.00;99.90;;;;;;4432244;28;661525;-74
2024/01/06 00:45:12;;;;;;;173.77;57.27;;;0.00;99.90;;;;;;4439672;28;660679;-74
2024/01/06 00:47:59;;;;;;;178.53;58.93;;;0.00;99.90;;;;;;4413231;28;661138;-74
2024/01/06 00:50:48;;;;;;;181.67;55.93;;;0.00;99.90;;;;;;4422653;28;660624;-74
2024/01/06 00:53:35;;;;;;;174.83;52.97;;;0.00;99.90;;;;;;4400883;28;660608;-74
2024/01/06 00:56:22;;;;;;;121.17;41.53;;;0.00;99.90;;;;;;4418414;28;661473;-74
2024/01/06 00:59:10;;;;;;;139.73;48.58;;;0.00;99.90;;;;;;4426926;28;660998;-74
2024/01/06 01:01:57;;;;;;;149.13;49.80;;;0.10;99.90;;;;;;4420976;28;660198;-74
2024/01/06 01:04:44;;;;;;;117.00;40.77;;;0.20;99.90;;;;;;4399749;28;660851;-74
2024/01/06 01:07:33;;;;;;;93.97;34.93;;;0.10;99.90;;;;;;4428641;28;660689;-74
2024/01/06 01:10:20;;;;;;;106.87;38.13;;;0.30;99.90;;;;;;4408915;28;660008;-74
2024/01/06 01:13:08;;;;;;;96.97;36.43;;;0.40;99.90;;;;;;4426779;28;660962;-74
2024/01/06 01:15:55;;;;;;;96.57;35.97;;;0.40;99.90;;;;;;4425697;28;660249;-74
2024/01/06 01:18:42;;;;;;;80.60;31.70;;;0.40;99.90;;;;;;4428734;28;659439;-73
2024/01/06 01:21:30;;;;;;;88.60;32.77;;;0.50;99.90;;;;;;4430016;28;660143;-74
2024/01/06 01:24:18;;;;;;;93.70;37.20;;;0.50;99.90;;;;;;4439420;28;659026;-74
2024/01/06 01:27:05;;;;;;;83.07;33.40;;;0.60;99.90;;;;;;4407118;28;660440;-75
2024/01/06 01:29:54;;;;;;;87.90;34.13;;;0.70;99.90;;;;;;4414208;28;659264;-74
2024/01/06 01:32:41;;;;;;;100.03;35.58;;;0.80;99.90;;;;;;4415493;28;659511;-74
2024/01/06 01:35:29;;;;;;;76.43;30.73;;;0.70;99.90;;;;;;4398662;28;660839;-74
2024/01/06 01:38:16;;;;;;;79.60;29.77;;;0.70;99.90;;;;;;4434325;28;660646;-74
2024/01/06 01:41:04;;;;;;;81.60;30.13;;;0.70;99.90;;;;;;4407587;28;659850;-74
2024/01/06 01:43:57;;;;;;;73.50;28.70;;;0.80;99.90;;;;;;4428176;28;660952;-74
2024/01/06 01:46:45;;;;;;;77.40;31.60;;;0.80;99.90;;;;;;4380879;28;659464;-74
2024/01/06 01:49:33;;;;;;;76.17;30.40;;;0.80;99.90;;;;;;4418435;28;659399;-75
2024/01/06 01:52:20;;;;;;;90.57;34.07;;;0.80;99.90;;;;;;4430915;28;660944;-74
2024/01/06 01:55:08;;;;;;;85.33;31.67;;;0.80;99.90;;;;;;4417184;28;659731;-74
2024/01/06 01:57:56;;;;;;;78.27;30.00;;;0.90;99.90;;;;;;4414445;28;660518;-74
2024/01/06 02:00:44;;;;;;;76.93;29.20;;;0.90;99.90;;;;;;4410017;28;660774;-74
2024/01/06 02:03:31;;;;;;;68.57;27.30;;;0.90;99.90;;;;;;4422404;28;660337;-74
2024/01/06 02:06:18;;;;;;;71.27;28.30;;;0.90;99.90;;;;;;4413743;28;660329;-74
2024/01/06 02:09:05;;;;;;;72.97;27.17;;;0.90;99.90;;;;;;4434934;28;659964;-74
2024/01/06 02:11:52;;;;;;;69.38;27.27;;;0.90;99.90;;;;;;4405122;28;660023;-74
2024/01/06 02:14:43;;;;;;;68.27;27.07;;;0.90;99.90;;;;;;4431245;28;660818;-74
2024/01/06 02:17:39;;;;;;;66.00;26.17;;;0.90;99.90;;;;;;4938257;27;131799;-75
2024/01/06 02:20:27;;;;;;;59.90;26.52;;;1.00;99.90;;;;;;4435580;28;650998;-74
2024/01/06 02:23:15;;;;;;;56.80;24.20;;;1.10;99.90;;;;;;4435108;28;651172;-74
2024/01/06 02:26:02;;;;;;;60.03;25.70;;;1.10;99.90;;;;;;4446288;28;652145;-74
2024/01/06 02:28:50;;;;;;;54.07;23.00;;;1.00;99.90;;;;;;4465996;28;652627;-74
2024/01/06 02:31:37;;;;;;;61.30;24.70;;;1.00;99.90;;;;;;4466910;28;652083;-74
2024/01/06 02:34:24;;;;;;;59.63;24.60;;;1.00;99.90;;;;;;4449831;28;652985;-74
2024/01/06 02:37:12;;;;;;;58.10;24.30;;;1.10;99.90;;;;;;4463481;28;653002;-74
2024/01/06 02:40:00;;;;;;;54.33;23.27;;;1.20;99.90;;;;;;4452168;28;652680;-74
2024/01/06 02:42:47;;;;;;;52.80;22.33;;;1.30;99.90;;;;;;4447614;28;653033;-74
2024/01/06 02:45:35;;;;;;;54.33;23.23;;;1.30;99.90;;;;;;4469221;28;654934;-74
2024/01/06 02:48:22;;;;;;;57.50;23.37;;;1.30;99.90;;;;;;4462002;28;653807;-74
2024/01/06 02:51:10;;;;;;;53.90;22.73;;;1.20;99.90;;;;;;4476524;28;653786;-74
2024/01/06 02:53:57;;;;;;;49.00;21.33;;;1.20;99.90;;;;;;4462238;28;655423;-75
2024/01/06 02:56:45;;;;;;;53.03;20.57;;;1.10;99.90;;;;;;4445918;28;654125;-75
2024/01/06 02:59:34;;;;;;;48.40;20.23;;;1.10;99.90;;;;;;4447908;28;653974;-74
2024/01/06 03:02:21;;;;;;;69.90;25.40;;;1.00;99.90;;;;;;4460729;28;652981;-74
2024/01/06 03:05:09;;;;;;;126.22;38.83;;;1.10;99.90;;;;;;4444274;28;653340;-74
2024/01/06 03:07:57;;;;;;;125.93;40.33;;;1.00;99.90;;;;;;4467947;28;654665;-74
2024/01/06 03:10:44;;;;;;;121.63;37.47;;;0.90;99.90;;;;;;4446163;28;655023;-74
2024/01/06 03:13:33;;;;;;;104.90;37.53;;;1.10;99.90;;;;;;4469998;28;654276;-74
2024/01/06 03:16:20;;;;;;;84.27;30.47;;;0.90;99.90;;;;;;4444325;28;655277;-74
2024/01/06 03:19:07;;;;;;;71.67;30.50;;;0.80;99.90;;;;;;4446899;28;653100;-74
2024/01/06 03:21:55;;;;;;;90.95;36.33;;;0.80;99.90;;;;;;4468753;28;653685;-74
2024/01/06 03:24:42;;;;;;;94.63;35.77;;;0.70;99.90;;;;;;4476295;28;653466;-75
2024/01/06 03:27:29;;;;;;;86.97;33.67;;;0.70;99.90;;;;;;4429633;28;653747;-75
2024/01/06 03:30:17;;;;;;;84.67;33.07;;;0.70;99.90;;;;;;4450829;28;653572;-74
2024/01/06 03:33:05;;;;;;;93.63;35.03;;;0.80;99.90;;;;;;4423562;28;655940;-74
2024/01/06 03:35:53;;;;;;;92.72;33.60;;;0.60;99.90;;;;;;4448119;28;653702;-74
2024/01/06 03:38:40;;;;;;;64.20;25.87;;;0.50;99.90;;;;;;4455990;28;654300;-74
2024/01/06 03:41:27;;;;;;;65.13;26.40;;;0.60;99.90;;;;;;4453059;28;653270;-74
2024/01/06 03:44:15;;;;;;;85.40;30.53;;;0.60;99.90;;;;;;4450445;28;653680;-74
2024/01/06 03:47:03;;;;;;;53.87;22.93;;;0.80;99.90;;;;;;4446290;28;653265;-74
2024/01/06 03:49:50;;;;;;;70.33;24.93;;;0.70;99.90;;;;;;4421148;28;653278;-74
2024/01/06 03:52:38;;;;;;;71.93;25.73;;;0.80;99.90;;;;;;4423809;28;653780;-74
2024/01/06 03:55:25;;;;;;;63.00;25.10;;;0.80;99.90;;;;;;4446767;28;653931;-74
2024/01/06 03:58:13;;;;;;;63.63;26.43;;;0.80;99.90;;;;;;4433485;28;653493;-74
2024/01/06 04:01:00;;;;;;;51.33;21.03;;;0.90;99.90;;;;;;4446020;28;653588;-74
2024/01/06 04:03:49;;;;;;;52.63;23.03;;;0.90;99.90;;;;;;4440617;28;653165;-74
2024/01/06 04:06:36;;;;;;;46.83;21.40;;;0.90;99.90;;;;;;4455549;28;653458;-74
2024/01/06 04:09:23;;;;;;;49.00;21.17;;;1.10;99.90;;;;;;4431708;28;653585;-74
2024/01/06 04:12:10;;;;;;;51.57;21.40;;;1.20;99.90;;;;;;4459249;28;653564;-74
2024/01/06 04:14:57;;;;;;;45.70;19.42;;;1.20;99.90;;;;;;4430341;28;653813;-74
2024/01/06 04:17:45;;;;;;;59.27;19.87;;;1.20;99.90;;;;;;4456414;28;654531;-74
2024/01/06 04:20:34;;;;;;;41.63;17.47;;;1.10;99.90;;;;;;4439780;28;653846;-74
2024/01/06 04:23:21;;;;;;;36.73;16.10;;;1.10;99.90;;;;;;4444622;28;653545;-75
2024/01/06 04:26:08;;;;;;;37.28;15.93;;;1.10;99.90;;;;;;4427135;28;653405;-74
2024/01/06 04:28:56;;;;;;;40.57;15.73;;;1.10;99.90;;;;;;4448487;28;653848;-74
2024/01/06 04:31:43;;;;;;;38.30;16.00;;;1.20;99.90;;;;;;4429822;28;653736;-74
2024/01/06 04:34:30;;;;;;;41.77;17.43;;;1.30;99.90;;;;;;4445330;28;654355;-74
2024/01/06 04:37:19;;;;;;;38.93;17.17;;;1.30;99.90;;;;;;4437031;28;653318;-74
2024/01/06 04:40:07;;;;;;;51.90;22.10;;;1.30;99.90;;;;;;4457428;28;653659;-74
2024/01/06 04:42:55;;;;;;;45.43;20.03;;;1.20;99.90;;;;;;4432473;28;653966;-74
2024/01/06 04:45:42;;;;;;;97.90;36.10;;;1.20;99.90;;;;;;4447799;28;654134;-74
2024/01/06 04:48:29;;;;;;;69.03;30.00;;;1.20;99.90;;;;;;4431719;28;654397;-74
2024/01/06 04:51:16;;;;;;;64.23;26.97;;;1.20;99.90;;;;;;4447508;28;653721;-74
2024/01/06 04:54:05;;;;;;;68.33;28.93;;;1.20;99.90;;;;;;4428088;28;653609;-74
2024/01/06 04:56:52;;;;;;;62.67;28.60;;;1.30;99.90;;;;;;4441980;28;653853;-74
2024/01/06 04:59:40;;;;;;;58.73;23.10;;;1.20;99.90;;;;;;4455801;28;653987;-74
2024/01/06 05:02:27;;;;;;;55.60;25.30;;;1.20;99.90;;;;;;4448683;28;653164;-74
2024/01/06 05:05:14;;;;;;;62.27;26.17;;;1.30;99.90;;;;;;4431920;28;655549;-75
2024/01/06 05:08:01;;;;;;;63.87;26.70;;;1.20;99.90;;;;;;4447547;28;655025;-74
2024/01/06 05:10:50;;;;;;;61.75;25.13;;;1.20;99.90;;;;;;4425412;28;654377;-74
2024/01/06 05:13:37;;;;;;;55.80;22.10;;;1.30;99.90;;;;;;4438091;28;654871;-75
2024/01/06 05:16:25;;;;;;;41.67;20.20;;;1.20;99.90;;;;;;4449026;28;655481;-74
2024/01/06 05:19:12;;;;;;;65.83;25.90;;;1.20;99.90;;;;;;4452252;28;653945;-75
2024/01/06 05:21:59;;;;;;;48.97;22.07;;;1.20;99.90;;;;;;4430305;28;654594;-75
2024/01/06 05:24:46;;;;;;;62.37;28.77;;;1.20;99.90;;;;;;4451465;28;654317;-76
2024/01/06 05:27:35;;;;;;;185.23;35.40;;;1.30;99.90;;;;;;4426189;28;655050;-75
2024/01/06 05:30:23;;;;;;;75.50;31.07;;;1.30;99.90;;;;;;4438318;28;655497;-75
2024/01/06 05:33:12;;;;;;;78.90;33.57;;;1.30;99.90;;;;;;4445212;28;655664;-76
2024/01/06 05:35:59;;;;;;;78.67;33.43;;;1.30;99.90;;;;;;4420487;28;654461;-75
2024/01/06 05:38:47;;;;;;;85.97;34.70;;;1.30;99.90;;;;;;4452349;28;654045;-76
2024/01/06 05:41:38;;;;;;;84.60;34.13;;;1.30;99.90;;;;;;4429064;28;655045;-76
2024/01/06 05:44:27;;;;;;;89.57;35.57;;;1.30;99.90;;;;;;4428678;28;654857;-75
2024/01/06 05:47:14;;;;;;;86.83;35.60;;;1.30;99.90;;;;;;4423772;28;655052;-76
2024/01/06 05:50:02;;;;;;;89.30;34.27;;;1.20;99.90;;;;;;4448493;28;654543;-76
2024/01/06 05:52:50;;;;;;;90.33;35.40;;;1.20;99.90;;;;;;4426797;28;655586;-76
2024/01/06 05:55:38;;;;;;;96.60;35.60;;;1.20;99.90;;;;;;4443689;28;654551;-76
2024/01/06 05:58:25;;;;;;;101.63;37.83;;;1.10;99.90;;;;;;4448344;28;655412;-76
2024/01/06 06:01:14;;;;;;;98.67;37.53;;;1.10;99.90;;;;;;4424614;28;654999;-76
2024/01/06 06:04:01;;;;;;;99.57;38.40;;;1.10;99.90;;;;;;4447870;28;655685;-75
2024/01/06 06:06:48;;;;;;;99.93;39.47;;;1.20;99.90;;;;;;4426498;28;654272;-76
2024/01/06 06:09:37;;;;;;;113.70;40.43;;;1.20;99.90;;;;;;4444746;28;654180;-75
2024/01/06 06:12:24;;;;;;;104.10;38.75;;;1.10;99.90;;;;;;4425829;28;656107;-76
2024/01/06 06:15:12;;;;;;;90.80;36.40;;;1.00;99.90;;;;;;4448281;28;655646;-76
2024/01/06 06:18:00;;;;;;;108.57;39.10;;;1.00;99.90;;;;;;4423107;28;654519;-76
2024/01/06 06:20:48;;;;;;;95.07;36.20;;;1.10;99.90;;;;;;4427448;28;655646;-75
2024/01/06 06:23:35;;;;;;;102.27;39.33;;;1.10;99.90;;;;;;4447581;28;654747;-75
2024/01/06 06:26:23;;;;;;;99.23;38.50;;;1.50;99.90;;;;;;4441232;28;655771;-75
2024/01/06 06:29:10;;;;;;;85.80;36.10;;;1.40;99.90;;;;;;4442782;28;655268;-76
2024/01/06 06:31:59;;;;;;;89.93;35.23;;;1.50;99.90;;;;;;4443281;28;654376;-75
2024/01/06 06:34:48;;;;;;;85.53;35.50;;;1.50;99.90;;;;;;4448083;28;654387;-75
2024/01/06 06:37:35;;;;;;;67.73;30.10;;;1.50;99.90;;;;;;4428616;28;654944;-75
2024/01/06 06:40:22;;;;;;;77.93;34.40;;;1.60;99.90;;;;;;4446727;28;654233;-75
2024/01/06 06:43:10;;;;;;;79.90;33.35;;;1.80;99.90;;;;;;4451549;28;654923;-75
2024/01/06 06:45:57;;;;;;;85.33;32.73;;;1.70;99.90;;;;;;4445523;28;654504;-75
2024/01/06 06:48:44;;;;;;;117.10;43.13;;;1.80;99.90;;;;;;4425730;28;654833;-75
2024/01/06 06:51:33;;;;;;;122.60;47.90;;;1.80;99.90;;;;;;4449704;28;655744;-75
2024/01/06 06:54:20;;;;;;;127.70;53.00;;;1.70;99.90;;;;;;4421955;28;655533;-76
2024/01/06 06:57:07;;;;;;;128.07;51.53;;;1.70;99.90;;;;;;4439733;28;656684;-76
2024/01/06 06:59:55;;;;;;;138.73;54.83;;;1.70;99.90;;;;;;4450009;28;657076;-75
2024/01/06 07:02:42;;;;;;;144.07;55.50;;;1.70;99.90;;;;;;4450834;28;655857;-76
2024/01/06 07:05:29;;;;;;;140.30;54.40;;;1.60;99.90;;;;;;4431830;28;656360;-75
2024/01/06 07:08:18;;;;;;;137.93;55.65;;;1.60;99.90;;;;;;4448255;28;657293;-76
2024/01/06 07:11:05;;;;;;;135.63;54.17;;;1.60;99.90;;;;;;4427604;28;656722;-75
2024/01/06 07:13:53;;;;;;;131.90;52.03;;;1.60;99.90;;;;;;4430766;28;656514;-76
2024/01/06 07:16:40;;;;;;;143.63;56.07;;;1.70;99.90;;;;;;4447734;28;656834;-75
2024/01/06 07:19:28;;;;;;;128.77;51.13;;;1.70;99.90;;;;;;4422055;28;657002;-75
2024/01/06 07:22:16;;;;;;;134.37;52.03;;;1.70;99.90;;;;;;4442535;28;657030;-75
2024/01/06 07:25:07;;;;;;;127.37;52.10;;;1.60;99.90;;;;;;4426582;28;656344;-75
2024/01/06 07:27:54;;;;;;;135.63;51.70;;;1.60;99.90;;;;;;4427736;28;656974;-76
2024/01/06 07:30:41;;;;;;;129.77;51.10;;;1.60;99.90;;;;;;4448140;28;656762;-76
2024/01/06 07:33:28;;;;;;;125.13;51.10;;;1.60;99.90;;;;;;4429579;28;656653;-75
2024/01/06 07:36:16;;;;;;;150.20;58.20;;;1.60;99.90;;;;;;4436515;28;657152;-76
2024/01/06 07:39:04;;;;;;;127.80;53.03;;;1.60;99.90;;;;;;4422069;28;657374;-76
2024/01/06 07:41:53;;;;;;;146.50;54.57;;;1.70;99.90;;;;;;4447895;28;656924;-76
2024/01/06 07:44:40;;;;;;;145.77;57.10;;;1.70;99.90;;;;;;4423281;28;657075;-75
2024/01/06 07:47:27;;;;;;;149.43;60.67;;;1.70;99.90;;;;;;4437642;28;657036;-76
2024/01/06 07:50:15;;;;;;;167.27;64.07;;;1.70;99.90;;;;;;4447461;28;657292;-75
2024/01/06 07:53:02;;;;;;;154.57;59.20;;;1.80;99.90;;;;;;4448091;28;656562;-75
2024/01/06 07:55:50;;;;;;;153.00;62.83;;;1.80;99.90;;;;;;4452151;28;656826;-75
2024/01/06 07:58:38;;;;;;;166.17;64.93;;;1.90;99.90;;;;;;4436051;28;656220;-75
2024/01/06 08:01:25;;;;;;;166.10;65.18;;;1.90;99.90;;;;;;4428636;28;656772;-75
2024/01/06 08:04:13;;;;;;;180.00;67.50;;;2.00;99.90;;;;;;4428871;28;656338;-76
2024/01/06 08:07:00;;;;;;;167.00;65.80;;;2.10;99.90;;;;;;4457371;28;657683;-75
2024/01/06 08:09:47;;;;;;;154.40;60.97;;;2.10;99.90;;;;;;4434914;28;656297;-75
2024/01/06 08:12:35;;;;;;;171.30;66.17;;;2.20;99.90;;;;;;4446145;28;657490;-75
2024/01/06 08:15:24;;;;;;;172.07;67.10;;;2.20;99.90;;;;;;4429805;28;657008;-75
2024/01/06 08:18:11;;;;;;;162.80;66.47;;;2.20;99.90;;;;;;4442035;28;656241;-76
2024/01/06 08:20:58;;;;;;;147.10;61.00;;;2.30;99.90;;;;;;4427128;28;656689;-75
2024/01/06 08:23:45;;;;;;;127.57;52.77;;;2.40;99.90;;;;;;4447981;28;656899;-76
2024/01/06 08:26:33;;;;;;;129.83;52.57;;;2.40;99.90;;;;;;4422519;28;656810;-76
2024/01/06 08:29:20;;;;;;;126.47;52.40;;;2.40;99.90;;;;;;4444514;28;657115;-75
2024/01/06 08:32:10;;;;;;;895.33;81.37;;;2.40;99.90;;;;;;4442678;28;656339;-75
2024/01/06 08:34:57;;;;;;;142.73;59.93;;;2.50;99.90;;;;;;4448380;28;656201;-76
2024/01/06 08:37:44;;;;;;;155.57;67.63;;;2.50;99.90;;;;;;4415353;28;656567;-75
2024/01/06 08:40:31;;;;;;;168.37;70.30;;;2.50;99.90;;;;;;4435649;28;656757;-75
2024/01/06 08:43:19;;;;;;;157.43;67.07;;;2.50;99.90;;;;;;4402395;28;656991;-75
2024/01/06 08:46:06;;;;;;;158.27;69.20;;;2.60;99.90;;;;;;4436305;28;656756;-75
2024/01/06 08:48:55;;;;;;;174.33;74.27;;;2.70;99.90;;;;;;4423805;28;656695;-75
2024/01/06 08:51:44;;;;;;;152.30;66.30;;;2.80;99.90;;;;;;4426962;28;656212;-75
2024/01/06 08:54:31;;;;;;;148.33;64.37;;;2.80;99.90;;;;;;4426298;28;656506;-76
2024/01/06 08:57:18;;;;;;;163.80;69.47;;;2.80;99.90;;;;;;4412090;28;656928;-76
2024/01/06 09:00:09;;;;;;;182.00;79.50;;;2.90;99.90;;;;;;4438825;28;657148;-75
2024/01/06 09:02:56;;;;;;;189.10;78.50;;;3.10;99.90;;;;;;4416075;28;656762;-75
2024/01/06 09:05:44;;;;;;;165.37;70.63;;;3.10;99.90;;;;;;4424692;28;656724;-75
2024/01/06 09:08:32;;;;;;;165.30;70.77;;;3.10;99.90;;;;;;4439425;28;656522;-76
2024/01/06 09:11:19;;;;;;;176.50;76.27;;;3.10;99.90;;;;;;4423465;28;658434;-75
2024/01/06 09:14:06;;;;;;;175.77;74.93;;;3.10;99.90;;;;;;4445539;28;656652;-75
2024/01/06 09:16:53;;;;;;;195.90;82.43;;;3.20;99.90;;;;;;4422567;28;656731;-75
2024/01/06 09:19:40;;;;;;;180.45;75.47;;;3.20;99.90;;;;;;4447052;28;657158;-75
2024/01/06 09:22:29;;;;;;;176.70;74.93;;;3.30;99.90;;;;;;4418666;28;656590;-75
2024/01/06 09:25:16;;;;;;;153.50;67.80;;;3.50;99.90;;;;;;4450025;28;655551;-75
2024/01/06 09:28:04;;;;;;;147.80;61.57;;;3.60;99.90;;;;;;4421232;28;657441;-75
2024/01/06 09:30:54;;;;;;;153.47;64.30;;;3.80;99.90;;;;;;4443909;28;657245;-75
2024/01/06 09:33:41;;;;;;;142.70;64.53;;;4.00;99.90;;;;;;4422863;28;656787;-75
2024/01/06 09:36:29;;;;;;;150.07;66.60;;;4.20;99.90;;;;;;4414623;28;656810;-75
2024/01/06 09:39:17;;;;;;;156.77;72.60;;;4.20;99.90;;;;;;4443398;28;656162;-75
2024/01/06 09:42:05;;;;;;;164.93;74.32;;;4.20;99.90;;;;;;4423900;28;656388;-75
2024/01/06 09:44:52;;;;;;;165.43;76.60;;;4.20;99.90;;;;;;4431810;28;656638;-75
2024/01/06 09:47:40;;;;;;;161.77;70.20;;;4.20;99.90;;;;;;4448471;28;656071;-75
2024/01/06 09:50:28;;;;;;;155.17;67.53;;;4.20;99.90;;;;;;4427482;28;656518;-75
2024/01/06 09:53:15;;;;;;;154.27;68.23;;;4.30;99.90;;;;;;4441023;28;657192;-75
2024/01/06 09:56:04;;;;;;;148.20;62.17;;;4.30;99.90;;;;;;4433668;28;656733;-75
2024/01/06 09:58:52;;;;;;;167.23;73.13;;;4.40;99.90;;;;;;4439274;28;656414;-75
2024/01/06 10:01:39;;;;;;;170.03;71.97;;;4.40;99.90;;;;;;4425315;28;656569;-75
2024/01/06 10:04:26;;;;;;;167.53;73.93;;;4.50;99.90;;;;;;4441830;28;658761;-75
2024/01/06 10:07:13;;;;;;;173.10;73.03;;;4.50;99.90;;;;;;4427508;28;656670;-75
2024/01/06 10:10:00;;;;;;;176.10;77.30;;;4.60;99.90;;;;;;4450415;28;657593;-75
2024/01/06 10:12:49;;;;;;;165.57;71.00;;;4.50;99.90;;;;;;4422220;28;657355;-75
2024/01/06 10:15:36;;;;;;;162.60;71.87;;;4.60;99.90;;;;;;4427194;28;656304;-75
2024/01/06 10:18:25;;;;;;;200.87;89.60;;;4.60;99.90;;;;;;4417998;28;656867;-75
2024/01/06 10:21:13;;;;;;;234.00;104.27;;;4.50;99.90;;;;;;4423298;28;656799;-75
2024/01/06 10:24:01;;;;;;;184.30;86.43;;;4.40;99.90;;;;;;4441135;28;657836;-75
2024/01/06 10:26:48;;;;;;;166.10;75.17;;;4.40;99.90;;;;;;4425911;28;657184;-75
2024/01/06 10:29:37;;;;;;;142.50;63.93;;;4.40;99.90;;;;;;4435823;28;657960;-76
2024/01/06 10:32:28;;;;;;;149.23;62.37;;;4.40;99.90;;;;;;4423388;28;657401;-75
2024/01/06 10:35:16;;;;;;;131.17;57.97;;;4.30;99.90;;;;;;4421385;28;657690;-75
2024/01/06 10:38:03;;;;;;;131.75;57.08;;;4.40;99.90;;;;;;4414631;28;657254;-75
2024/01/06 10:40:58;;;;;;;128.60;56.17;;;4.40;99.90;;;;;;4440120;28;656721;-75
2024/01/06 10:43:45;;;;;;;133.03;55.93;;;4.40;99.90;;;;;;4403468;28;656560;-76
2024/01/06 10:46:34;;;;;;;131.53;55.20;;;4.40;99.90;;;;;;4446185;28;656935;-75
2024/01/06 10:49:22;;;;;;;130.40;52.27;;;4.40;99.90;;;;;;4444132;28;657347;-75
2024/01/06 10:52:09;;;;;;;137.60;54.73;;;4.40;99.90;;;;;;4427411;28;657696;-75
2024/01/06 10:54:56;;;;;;;133.57;56.10;;;4.30;99.90;;;;;;4441374;28;656548;-75
2024/01/06 10:57:44;;;;;;;137.48;55.25;;;4.30;99.90;;;;;;4426251;28;656600;-75
2024/01/06 11:00:31;;;;;;;145.33;54.93;;;4.30;99.90;;;;;;4442316;28;656809;-75
2024/01/06 11:03:20;;;;;;;145.43;57.50;;;4.30;99.90;;;;;;4421117;28;656560;-75
2024/01/06 11:06:10;;;;;;;147.97;54.40;;;4.30;99.90;;;;;;4447751;28;657110;-74
2024/01/06 11:09:00;;;;;;;146.13;58.00;;;4.20;99.90;;;;;;4426655;28;656651;-75
2024/01/06 11:11:48;;;;;;;153.40;60.90;;;4.20;99.90;;;;;;4434255;28;656666;-75
2024/01/06 11:14:37;;;;;;;159.23;59.63;;;4.30;99.90;;;;;;4448732;28;657742;-75
2024/01/06 11:17:53;;;;;;;142.77;53.50;;;4.40;99.90;;;;;;4427181;28;656520;-75
2024/01/06 11:20:52;;;;;;;146.47;57.30;;;4.40;99.90;;;;;;4424461;28;657761;-75
2024/01/06 11:23:40;;;;;;;144.70;53.37;;;4.40;99.90;;;;;;4398632;28;656958;-75
2024/01/06 11:26:28;;;;;;;147.00;57.77;;;4.40;99.90;;;;;;4423313;28;656582;-75
2024/01/06 11:29:15;;;;;;;146.77;54.07;;;4.30;99.90;;;;;;4448220;28;656733;-75
2024/01/06 11:32:19;;;;;;;145.43;54.27;;;4.20;99.90;;;;;;4441519;28;656438;-75
2024/01/06 11:35:08;;;;;;;133.73;51.73;;;4.20;99.90;;;;;;4422195;28;657255;-75
2024/01/06 11:37:58;;;;;;;147.77;56.30;;;4.20;99.90;;;;;;4422451;28;657448;-75
2024/01/06 11:40:45;;;;;;;146.57;60.37;;;4.20;99.90;;;;;;4423997;28;657378;-75
2024/01/06 11:43:34;;;;;;;152.57;60.00;;;4.20;99.90;;;;;;4439946;28;656618;-75
2024/01/06 11:46:21;;;;;;;167.67;61.90;;;4.40;99.90;;;;;;4446877;28;656668;-75
2024/01/06 11:49:08;;;;;;;169.60;68.63;;;4.50;99.90;;;;;;4422820;28;656596;-75
2024/01/06 11:51:55;;;;;;;170.10;64.80;;;4.60;99.90;;;;;;4452867;28;656942;-76
2024/01/06 11:54:44;;;;;;;153.87;62.50;;;4.70;99.90;;;;;;4426641;28;656857;-76
2024/01/06 11:57:31;;;;;;;161.77;65.67;;;4.70;99.90;;;;;;4434303;28;656873;-76
2024/01/06 12:00:19;;;;;;;174.57;72.43;;;4.80;99.90;;;;;;4425274;28;656645;-76
2024/01/06 12:03:06;;;;;;;159.83;63.87;;;4.90;99.90;;;;;;4445283;28;656230;-75
2024/01/06 12:06:01;;;;;;;174.83;70.37;;;4.90;99.90;;;;;;4420242;28;656702;-75
2024/01/06 12:08:48;;;;;;;150.70;61.67;;;5.00;99.90;;;;;;4394404;28;657831;-76
2024/01/06 12:11:37;;;;;;;74.60;33.77;;;5.00;99.90;;;;;;4443432;28;657837;-76
2024/01/06 12:14:24;;;;;;;66.50;33.40;;;5.00;99.90;;;;;;4421284;28;655615;-75
2024/01/06 12:17:13;;;;;;;72.57;33.40;;;5.00;99.90;;;;;;4443228;28;655450;-75
2024/01/06 12:20:00;;;;;;;67.90;31.73;;;5.00;99.90;;;;;;4427929;28;655419;-76
2024/01/06 12:22:47;;;;;;;64.27;32.27;;;5.00;99.90;;;;;;4437240;28;655628;-74
2024/01/06 12:25:35;;;;;;;63.87;29.97;;;5.00;99.90;;;;;;4443524;28;655581;-75
2024/01/06 12:28:24;;;;;;;68.50;32.53;;;5.10;99.90;;;;;;4424264;28;655673;-74
2024/01/06 12:31:12;;;;;;;73.53;34.47;;;5.10;99.90;;;;;;4446591;28;655201;-75
2024/01/06 12:34:00;;;;;;;66.87;32.47;;;5.10;99.90;;;;;;4417872;28;656649;-75
2024/01/06 12:36:48;;;;;;;80.03;35.60;;;5.20;99.90;;;;;;4443981;28;654875;-75
2024/01/06 12:39:35;;;;;;;79.10;36.73;;;5.10;99.90;;;;;;4444106;28;656982;-75
2024/01/06 12:42:23;;;;;;;73.53;35.13;;;5.10;99.90;;;;;;4446393;28;655502;-76
2024/01/06 12:45:12;;;;;;;54.57;26.67;;;5.10;99.90;;;;;;4444003;28;655643;-75
2024/01/06 12:48:00;;;;;;;59.23;27.57;;;4.90;99.90;;;;;;4424265;28;655871;-76
2024/01/06 12:50:47;;;;;;;60.10;29.07;;;4.80;99.90;;;;;;4449144;28;655475;-75
2024/01/06 12:53:35;;;;;;;65.60;31.70;;;4.90;99.90;;;;;;4442314;28;655785;-75
2024/01/06 12:56:22;;;;;;;72.37;32.40;;;4.80;99.90;;;;;;4424699;28;655498;-75
2024/01/06 12:59:11;;;;;;;64.60;30.87;;;4.80;99.90;;;;;;4450144;28;656683;-75
2024/01/06 13:01:59;;;;;;;61.77;30.47;;;4.80;99.90;;;;;;4425401;28;655876;-75
2024/01/06 13:04:46;;;;;;;64.90;30.30;;;4.70;99.90;;;;;;4442306;28;655106;-75
2024/01/06 13:07:33;;;;;;;69.73;30.80;;;4.60;99.90;;;;;;4427685;28;655874;-76
2024/01/06 13:10:21;;;;;;;62.83;28.83;;;4.60;99.90;;;;;;4448632;28;656543;-75
2024/01/06 13:13:08;;;;;;;68.60;30.63;;;4.60;99.90;;;;;;4415464;28;655548;-75
2024/01/06 13:15:55;;;;;;;71.00;34.33;;;4.50;99.90;;;;;;4445186;28;655523;-75
2024/01/06 13:18:44;;;;;;;68.37;32.30;;;4.50;99.90;;;;;;4425737;28;656410;-75
2024/01/06 13:21:31;;;;;;;66.73;31.30;;;4.50;99.90;;;;;;4401699;28;656416;-75
2024/01/06 13:24:18;;;;;;;63.33;30.77;;;4.40;99.90;;;;;;4369193;28;655494;-75
2024/01/06 13:27:05;;;;;;;72.40;31.77;;;4.30;99.90;;;;;;4370675;28;656530;-75
2024/01/06 13:29:53;;;;;;;45.80;23.60;;;4.30;99.90;;;;;;4341014;28;655787;-76
2024/01/06 13:32:40;;;;;;;47.77;23.77;;;4.10;99.90;;;;;;4355173;28;655691;-75
2024/01/06 13:35:30;;;;;;;45.90;22.07;;;4.00;99.90;;;;;;4349914;28;656018;-75
2024/01/06 13:38:17;;;;;;;49.23;23.47;;;4.00;99.90;;;;;;4368211;28;655140;-75
2024/01/06 13:41:04;;;;;;;56.57;24.23;;;3.90;99.90;;;;;;4346708;28;655854;-75
2024/01/06 13:43:52;;;;;;;47.30;22.20;;;4.00;99.90;;;;;;4371332;28;655275;-75
2024/01/06 13:46:40;;;;;;;39.67;20.03;;;3.90;99.90;;;;;;4346823;28;655765;-75
2024/01/06 13:49:28;;;;;;;45.93;20.90;;;3.80;99.90;;;;;;4347304;28;656008;-75
2024/01/06 13:52:16;;;;;;;52.67;21.70;;;3.80;99.90;;;;;;4364763;28;657032;-76
2024/01/06 13:55:04;;;;;;;62.50;24.53;;;3.70;99.90;;;;;;4351019;28;655465;-76
2024/01/06 13:57:51;;;;;;;50.57;21.40;;;3.70;99.90;;;;;;4370525;28;655262;-75
2024/01/06 14:00:39;;;;;;;46.97;21.23;;;3.70;99.90;;;;;;4417020;28;656256;-75
2024/01/06 14:03:26;;;;;;;82.10;26.30;;;3.60;99.90;;;;;;4434179;28;656115;-75